Sultan Syarif Kasim Ii (Simpang Tiga) Airport
WIBB : now visible

Airfield :











YOU CAN JOIN US ON...

 
LOGIN :

Register | Disclaimer

   EN    FR    IT 

 









Legend :    VFR   Marginal VFR   IFR   Intensive IFR   Very Intensive IFR
Visi :
Ceiling :
>= 8 km
>= 3000ft
5 to 8 km
1000 to 3000 ft
1500m to 5 km
500 to 1000 ft
800 to 1500m
200 to 500 ft
< 800m
< 200 ft
Symbols :   Thunderstorms  Fog  Heavy snow  Heavy precipitations  Wind > 20 kt






- Airport Elevation : 102 ft
- IATA code : PKU


WIBB - Sultan Syarif Kasim Ii (Simpang Tiga)

CURRENT METAR :
  • 290430Z 15007KT 120V180 9999 SCT014 33/26 Q1008 NOSIG

EXPIRED METARs :
  • 290400Z 19007KT 9999 SCT014 33/26 Q1008 NOSIG
  • 290330Z 14006KT 110V170 9999 SCT014 33/26 Q1008 NOSIG
  • 290300Z 16006KT 9999 SCT014 32/26 Q1008 NOSIG
  • 290230Z 13006KT 9999 SCT012 31/26 Q1008 NOSIG
  • 290200Z 13005KT 9999 FEW010 30/26 Q1008 NOSIG
  • 290130Z 13006KT 8000 NSC 30/26 Q1008 NOSIG
  • 290100Z 13005KT 8000 NSC 29/26 Q1008 NOSIG
  • 290030Z 14005KT 6000 NSC 28/26 Q1007 NOSIG

Expired Forecast.
WIIF FIR / Asia



MET'MAP, your aeronautical weather chart ! - Copyright ORBIFLY December 2007 - Disclaimer

ORBIFLY MET'MAP TEAM :

Programming & Development : Alexandra Zaïnal
Original concept : Baudouin d'Aumeries
Technical & hardware support : Manuel Goepfert
Assistance : Marc-Olivier Méhu




SOURCES & CREDITS :

   NOAA       Earth
Advisory